sensor_id;sensor_type;location;lat;lon;timestamp;pressure;altitude;pressure_sealevel;temperature;humidity
10060;BME280;5069;49.306;8.636;2023-02-02T00:02:42;101179.22;;;7.43;100.00
10060;BME280;5069;49.306;8.636;2023-02-02T00:05:51;101193.25;;;7.39;100.00
10060;BME280;5069;49.306;8.636;2023-02-02T00:08:55;101182.75;;;7.39;100.00
10060;BME280;5069;49.306;8.636;2023-02-02T00:11:58;101188.00;;;7.36;100.00
10060;BME280;5069;49.306;8.636;2023-02-02T00:15:00;101181.88;;;7.40;100.00
10060;BME280;5069;49.306;8.636;2023-02-02T00:18:02;101177.50;;;7.39;100.00
10060;BME280;5069;49.306;8.636;2023-02-02T00:21:03;101183.59;;;7.41;100.00
10060;BME280;5069;49.306;8.636;2023-02-02T00:24:16;101182.75;;;7.39;100.00
10060;BME280;5069;49.306;8.636;2023-02-02T00:27:20;101182.72;;;7.42;100.00
10060;BME280;5069;49.306;8.636;2023-02-02T00:30:22;101195.03;;;7.31;100.00
10060;BME280;5069;49.306;8.636;2023-02-02T00:33:23;101195.00;;;7.37;100.00
10060;BME280;5069;49.306;8.636;2023-02-02T00:36:25;101184.50;;;7.37;100.00
10060;BME280;5069;49.306;8.636;2023-02-02T00:39:26;101188.94;;;7.29;100.00
10060;BME280;5069;49.306;8.636;2023-02-02T00:42:28;101167.09;;;7.24;100.00
10060;BME280;5069;49.306;8.636;2023-02-02T00:45:29;101175.88;;;7.20;100.00
10060;BME280;5069;49.306;8.636;2023-02-02T00:48:31;101163.69;;;7.16;100.00
10060;BME280;5069;49.306;8.636;2023-02-02T00:51:33;101175.94;;;7.14;100.00
10060;BME280;5069;49.306;8.636;2023-02-02T00:54:34;101175.97;;;7.11;100.00
10060;BME280;5069;49.306;8.636;2023-02-02T00:57:36;101180.31;;;7.15;100.00
10060;BME280;5069;49.306;8.636;2023-02-02T01:00:37;101179.44;;;7.16;100.00
10060;BME280;5069;49.306;8.636;2023-02-02T01:03:39;101171.53;;;7.20;100.00
10060;BME280;5069;49.306;8.636;2023-02-02T01:06:40;101180.31;;;7.15;100.00
10060;BME280;5069;49.306;8.636;2023-02-02T01:09:42;101178.56;;;7.17;100.00
10060;BME280;5069;49.306;8.636;2023-02-02T01:12:44;101182.03;;;7.16;100.00
10060;BME280;5069;49.306;8.636;2023-02-02T01:15:46;101181.13;;;7.23;100.00
10060;BME280;5069;49.306;8.636;2023-02-02T01:18:48;101191.66;;;7.17;100.00
10060;BME280;5069;49.306;8.636;2023-02-02T01:21:50;101182.88;;;7.19;100.00
10060;BME280;5069;49.306;8.636;2023-02-02T01:24:53;101188.09;;;7.24;100.00
10060;BME280;5069;49.306;8.636;2023-02-02T01:27:56;101187.22;;;7.28;100.00
10060;BME280;5069;49.306;8.636;2023-02-02T01:30:58;101185.41;;;7.31;100.00
10060;BME280;5069;49.306;8.636;2023-02-02T01:33:59;101191.56;;;7.29;100.00
10060;BME280;5069;49.306;8.636;2023-02-02T01:37:03;101183.72;;;7.29;100.00
10060;BME280;5069;49.306;8.636;2023-02-02T01:40:06;101174.03;;;7.34;100.00
10060;BME280;5069;49.306;8.636;2023-02-02T01:43:27;101177.56;;;7.30;100.00
10060;BME280;5069;49.306;8.636;2023-02-02T01:46:33;101184.50;;;7.37;100.00
10060;BME280;5069;49.306;8.636;2023-02-02T01:49:35;101176.72;;;7.26;100.00
10060;BME280;5069;49.306;8.636;2023-02-02T01:52:39;101182.88;;;7.21;100.00
10060;BME280;5069;49.306;8.636;2023-02-02T01:55:43;101182.84;;;7.27;100.00
10060;BME280;5069;49.306;8.636;2023-02-02T01:58:45;101181.13;;;7.23;100.00
10060;BME280;5069;49.306;8.636;2023-02-02T02:01:47;101179.38;;;7.23;100.00
10060;BME280;5069;49.306;8.636;2023-02-02T02:04:50;101179.44;;;7.16;100.00
10060;BME280;5069;49.306;8.636;2023-02-02T02:07:56;101184.63;;;7.22;100.00
10060;BME280;5069;49.306;8.636;2023-02-02T02:11:02;101176.72;;;7.25;100.00
10060;BME280;5069;49.306;8.636;2023-02-02T02:14:07;101184.63;;;7.22;100.00
10060;BME280;5069;49.306;8.636;2023-02-02T02:28:48;101186.34;;;7.29;100.00
10060;BME280;5069;49.306;8.636;2023-02-02T02:35:31;101194.19;;;7.26;100.00
10060;BME280;5069;49.306;8.636;2023-02-02T02:38:43;101179.34;;;7.25;100.00
10060;BME280;5069;49.306;8.636;2023-02-02T02:41:51;101193.31;;;7.28;100.00
10060;BME280;5069;49.306;8.636;2023-02-02T02:44:54;101182.81;;;7.30;100.00
10060;BME280;5069;49.306;8.636;2023-02-02T02:47:57;101183.66;;;7.30;100.00
10060;BME280;5069;49.306;8.636;2023-02-02T02:51:07;101186.34;;;7.29;100.00
10060;BME280;5069;49.306;8.636;2023-02-02T02:54:33;101184.59;;;7.25;100.00
10060;BME280;5069;49.306;8.636;2023-02-02T02:57:42;101182.84;;;7.24;100.00
10060;BME280;5069;49.306;8.636;2023-02-02T03:01:00;101184.59;;;7.25;100.00
10060;BME280;5069;49.306;8.636;2023-02-02T03:07:50;101185.41;;;7.34;100.00
10060;BME280;5069;49.306;8.636;2023-02-02T03:10:55;101189.78;;;7.31;100.00
10060;BME280;5069;49.306;8.636;2023-02-02T03:13:58;101187.16;;;7.31;100.00
10060;BME280;5069;49.306;8.636;2023-02-02T03:17:01;101191.53;;;7.32;100.00
10060;BME280;5069;49.306;8.636;2023-02-02T03:20:03;101188.91;;;7.33;100.00
10060;BME280;5069;49.306;8.636;2023-02-02T03:23:04;101195.91;;;7.34;100.00
10060;BME280;5069;49.306;8.636;2023-02-02T03:26:06;101195.03;;;7.31;100.00
10060;BME280;5069;49.306;8.636;2023-02-02T03:29:07;101198.53;;;7.34;100.00
10060;BME280;5069;49.306;8.636;2023-02-02T03:32:09;101195.03;;;7.31;100.00
10060;BME280;5069;49.306;8.636;2023-02-02T03:35:10;101197.63;;;7.37;100.00
10060;BME280;5069;49.306;8.636;2023-02-02T03:38:12;101198.50;;;7.36;100.00
10060;BME280;5069;49.306;8.636;2023-02-02T03:41:13;101192.38;;;7.37;100.00
10060;BME280;5069;49.306;8.636;2023-02-02T03:44:15;101193.28;;;7.33;100.00
10060;BME280;5069;49.306;8.636;2023-02-02T03:47:16;101195.84;;;7.39;100.00
10060;BME280;5069;49.306;8.636;2023-02-02T03:50:18;101194.13;;;7.36;100.00
10060;BME280;5069;49.306;8.636;2023-02-02T03:53:20;101194.16;;;7.32;100.00
10060;BME280;5069;49.306;8.636;2023-02-02T03:56:21;101198.53;;;7.30;100.00
10060;BME280;5069;49.306;8.636;2023-02-02T03:59:23;101196.81;;;7.29;100.00
10060;BME280;5069;49.306;8.636;2023-02-02T04:02:24;101193.31;;;7.27;100.00
10060;BME280;5069;49.306;8.636;2023-02-02T04:05:26;101197.66;;;7.29;100.00
10060;BME280;5069;49.306;8.636;2023-02-02T04:08:28;101199.41;;;7.30;100.00
10060;BME280;5069;49.306;8.636;2023-02-02T04:11:29;101205.47;;;7.37;100.00
10060;BME280;5069;49.306;8.636;2023-02-02T04:14:31;101202.91;;;7.32;100.00
10060;BME280;5069;49.306;8.636;2023-02-02T04:17:32;101214.25;;;7.33;100.00
10060;BME280;5069;49.306;8.636;2023-02-02T04:20:35;101222.13;;;7.34;100.00
10060;BME280;5069;49.306;8.636;2023-02-02T04:23:36;101228.22;;;7.35;100.00
10060;BME280;5069;49.306;8.636;2023-02-02T04:26:38;101223.00;;;7.30;100.00
10060;BME280;5069;49.306;8.636;2023-02-02T04:29:39;101222.94;;;7.41;100.00
10060;BME280;5069;49.306;8.636;2023-02-02T04:32:41;101229.03;;;7.41;100.00
10060;BME280;5069;49.306;8.636;2023-02-02T04:35:42;101222.06;;;7.40;100.00
10060;BME280;5069;49.306;8.636;2023-02-02T04:38:50;101226.47;;;7.38;100.00
10060;BME280;5069;49.306;8.636;2023-02-02T04:41:52;101223.84;;;7.38;100.00
10060;BME280;5069;49.306;8.636;2023-02-02T04:44:53;101231.66;;;7.43;100.00
10060;BME280;5069;49.306;8.636;2023-02-02T04:47:55;101234.25;;;7.47;100.00
10060;BME280;5069;49.306;8.636;2023-02-02T04:51:08;101226.47;;;7.40;100.00
10060;BME280;5069;49.306;8.636;2023-02-02T04:54:10;101229.03;;;7.44;100.00
10060;BME280;5069;49.306;8.636;2023-02-02T04:57:11;101250.03;;;7.46;100.00
10060;BME280;5069;49.306;8.636;2023-02-02T05:00:13;101246.50;;;7.47;100.00
10060;BME280;5069;49.306;8.636;2023-02-02T05:03:15;101246.53;;;7.42;100.00
10060;BME280;5069;49.306;8.636;2023-02-02T05:06:17;101249.16;;;7.42;100.00
10060;BME280;5069;49.306;8.636;2023-02-02T05:09:19;101249.16;;;7.42;100.00
10060;BME280;5069;49.306;8.636;2023-02-02T05:12:21;101253.53;;;7.45;100.00
10060;BME280;5069;49.306;8.636;2023-02-02T05:15:22;101243.06;;;7.37;100.00
10060;BME280;5069;49.306;8.636;2023-02-02T05:18:24;101238.66;;;7.41;100.00
10060;BME280;5069;49.306;8.636;2023-02-02T05:21:26;101250.94;;;7.37;100.00
10060;BME280;5069;49.306;8.636;2023-02-02T05:24:27;101256.97;;;7.48;100.00
10060;BME280;5069;49.306;8.636;2023-02-02T05:27:29;101263.16;;;7.46;100.00
10060;BME280;5069;49.306;8.636;2023-02-02T05:30:30;101271.91;;;7.42;100.00
10060;BME280;5069;49.306;8.636;2023-02-02T05:33:34;101259.66;;;7.41;100.00
10060;BME280;5069;49.306;8.636;2023-02-02T05:36:35;101260.56;;;7.40;100.00
10060;BME280;5069;49.306;8.636;2023-02-02T05:39:37;101266.66;;;7.42;100.00
10060;BME280;5069;49.306;8.636;2023-02-02T05:42:38;101260.56;;;7.35;100.00
10060;BME280;5069;49.306;8.636;2023-02-02T05:45:39;101261.47;;;7.33;100.00
10060;BME280;5069;49.306;8.636;2023-02-02T05:48:42;101269.34;;;7.33;100.00
10060;BME280;5069;49.306;8.636;2023-02-02T05:51:45;101271.09;;;7.31;100.00
10060;BME280;5069;49.306;8.636;2023-02-02T05:54:48;101278.97;;;7.31;100.00
10060;BME280;5069;49.306;8.636;2023-02-02T05:57:49;101285.13;;;7.27;100.00
10060;BME280;5069;49.306;8.636;2023-02-02T06:00:51;101285.13;;;7.28;100.00
10060;BME280;5069;49.306;8.636;2023-02-02T06:03:53;101279.81;;;7.39;100.00
10060;BME280;5069;49.306;8.636;2023-02-02T06:06:55;101286.81;;;7.34;100.00
10060;BME280;5069;49.306;8.636;2023-02-02T06:09:56;101277.19;;;7.36;100.00
10060;BME280;5069;49.306;8.636;2023-02-02T06:12:58;101277.19;;;7.39;100.00
10060;BME280;5069;49.306;8.636;2023-02-02T06:15:59;101289.41;;;7.37;100.00
10060;BME280;5069;49.306;8.636;2023-02-02T06:19:01;101272.84;;;7.32;100.00
10060;BME280;5069;49.306;8.636;2023-02-02T06:22:03;101280.66;;;7.36;100.00
10060;BME280;5069;49.306;8.636;2023-02-02T06:25:04;101278.97;;;7.34;100.00
10060;BME280;5069;49.306;8.636;2023-02-02T06:28:08;101275.38;;;7.41;100.00
10060;BME280;5069;49.306;8.636;2023-02-02T06:31:10;101277.13;;;7.40;100.00
10060;BME280;5069;49.306;8.636;2023-02-02T06:34:12;101283.28;;;7.35;100.00
10060;BME280;5069;49.306;8.636;2023-02-02T06:37:16;101279.84;;;7.34;100.00
10060;BME280;5069;49.306;8.636;2023-02-02T06:40:17;101294.66;;;7.40;100.00
10060;BME280;5069;49.306;8.636;2023-02-02T06:43:19;101285.88;;;7.41;100.00
10060;BME280;5069;49.306;8.636;2023-02-02T06:46:20;101280.66;;;7.38;100.00
10060;BME280;5069;49.306;8.636;2023-02-02T06:49:22;101289.38;;;7.41;100.00
10060;BME280;5069;49.306;8.636;2023-02-02T06:52:23;101286.75;;;7.43;100.00
10060;BME280;5069;49.306;8.636;2023-02-02T06:55:24;101287.63;;;7.40;100.00
10060;BME280;5069;49.306;8.636;2023-02-02T06:58:28;101298.97;;;7.48;100.00
10060;BME280;5069;49.306;8.636;2023-02-02T07:01:30;101303.38;;;7.45;100.00
10060;BME280;5069;49.306;8.636;2023-02-02T07:04:31;101298.13;;;7.42;100.00
10060;BME280;5069;49.306;8.636;2023-02-02T07:07:33;101300.78;;;7.37;100.00
10060;BME280;5069;49.306;8.636;2023-02-02T07:10:36;101301.63;;;7.45;100.00
10060;BME280;5069;49.306;8.636;2023-02-02T07:13:58;101301.63;;;7.45;100.00
10060;BME280;5069;49.306;8.636;2023-02-02T07:17:00;101306.81;;;7.52;100.00
10060;BME280;5069;49.306;8.636;2023-02-02T07:20:01;101306.78;;;7.53;100.00
10060;BME280;5069;49.306;8.636;2023-02-02T07:23:03;101315.56;;;7.49;100.00
10060;BME280;5069;49.306;8.636;2023-02-02T07:26:08;101314.69;;;7.48;100.00
10060;BME280;5069;49.306;8.636;2023-02-02T07:29:12;101310.34;;;7.47;100.00
10060;BME280;5069;49.306;8.636;2023-02-02T07:32:16;101308.59;;;7.48;100.00
10060;BME280;5069;49.306;8.636;2023-02-02T07:35:18;101322.59;;;7.44;100.00
10060;BME280;5069;49.306;8.636;2023-02-02T07:38:19;101325.19;;;7.50;100.00
10060;BME280;5069;49.306;8.636;2023-02-02T07:41:21;101325.13;;;7.58;100.00
10060;BME280;5069;49.306;8.636;2023-02-02T07:44:23;101340.03;;;7.57;100.00
10060;BME280;5069;49.306;8.636;2023-02-02T07:47:24;101345.25;;;7.62;100.00
10060;BME280;5069;49.306;8.636;2023-02-02T07:50:27;101345.25;;;7.60;100.00
10060;BME280;5069;49.306;8.636;2023-02-02T07:53:30;101359.16;;;7.71;100.00
10060;BME280;5069;49.306;8.636;2023-02-02T07:56:31;101350.44;;;7.66;100.00
10060;BME280;5069;49.306;8.636;2023-02-02T07:59:33;101348.66;;;7.73;100.00
10060;BME280;5069;49.306;8.636;2023-02-02T08:02:34;101356.47;;;7.80;100.00
10060;BME280;5069;49.306;8.636;2023-02-02T08:05:36;101356.56;;;7.65;100.00
10060;BME280;5069;49.306;8.636;2023-02-02T08:08:37;101366.19;;;7.66;100.00
10060;BME280;5069;49.306;8.636;2023-02-02T08:11:39;101356.53;;;7.71;100.00
10060;BME280;5069;49.306;8.636;2023-02-02T08:14:40;101353.03;;;7.71;100.00
10060;BME280;5069;49.306;8.636;2023-02-02T08:17:45;101353.94;;;7.67;100.00
10060;BME280;5069;49.306;8.636;2023-02-02T08:20:50;101363.53;;;7.71;100.00
10060;BME280;5069;49.306;8.636;2023-02-02T08:23:52;101355.66;;;7.69;100.00
10060;BME280;5069;49.306;8.636;2023-02-02T08:26:54;101371.41;;;7.69;100.00
10060;BME280;5069;49.306;8.636;2023-02-02T08:29:55;101371.44;;;7.63;100.00
10060;BME280;5069;49.306;8.636;2023-02-02T08:32:57;101379.28;;;7.74;100.00
10060;BME280;5069;49.306;8.636;2023-02-02T08:35:58;101377.50;;;7.76;100.00
10060;BME280;5069;49.306;8.636;2023-02-02T08:39:02;101372.28;;;7.74;100.00
10060;BME280;5069;49.306;8.636;2023-02-02T08:42:04;101363.41;;;7.87;100.00
10060;BME280;5069;49.306;8.636;2023-02-02T08:45:06;101361.63;;;7.97;100.00
10060;BME280;5069;49.306;8.636;2023-02-02T08:48:28;101371.25;;;7.97;100.00
10060;BME280;5069;49.306;8.636;2023-02-02T08:51:29;101372.91;;;8.07;100.00
10060;BME280;5069;49.306;8.636;2023-02-02T08:54:31;101366.75;;;8.12;100.00
10060;BME280;5069;49.306;8.636;2023-02-02T08:57:32;101366.69;;;8.17;100.00
10060;BME280;5069;49.306;8.636;2023-02-02T09:00:34;101379.78;;;8.23;100.00
10060;BME280;5069;49.306;8.636;2023-02-02T09:03:36;101382.41;;;8.21;100.00
10060;BME280;5069;49.306;8.636;2023-02-02T09:06:40;101369.22;;;8.29;100.00
10060;BME280;5069;49.306;8.636;2023-02-02T09:09:42;101371.03;;;8.24;100.00
10060;BME280;5069;49.306;8.636;2023-02-02T09:12:43;101378.88;;;8.28;100.00
10060;BME280;5069;49.306;8.636;2023-02-02T09:15:45;101387.59;;;8.34;100.00
10060;BME280;5069;49.306;8.636;2023-02-02T09:18:46;101398.06;;;8.38;100.00
10060;BME280;5069;49.306;8.636;2023-02-02T09:21:49;101390.16;;;8.43;100.00
10060;BME280;5069;49.306;8.636;2023-02-02T09:24:50;101399.78;;;8.44;100.00
10060;BME280;5069;49.306;8.636;2023-02-02T09:27:52;101408.56;;;8.41;100.00
10060;BME280;5069;49.306;8.636;2023-02-02T09:30:53;101390.22;;;8.35;100.00
10060;BME280;5069;49.306;8.636;2023-02-02T09:33:58;101390.19;;;8.41;100.00
10060;BME280;5069;49.306;8.636;2023-02-02T09:37:00;101397.19;;;8.41;100.00
10060;BME280;5069;49.306;8.636;2023-02-02T09:40:01;101382.31;;;8.38;100.00
10060;BME280;5069;49.306;8.636;2023-02-02T09:43:26;101396.31;;;8.42;100.00
10060;BME280;5069;49.306;8.636;2023-02-02T09:50:03;101392.81;;;8.38;100.00
10060;BME280;5069;49.306;8.636;2023-02-02T09:53:17;101384.94;;;8.40;100.00
10060;BME280;5069;49.306;8.636;2023-02-02T09:56:48;101389.31;;;8.41;100.00
10060;BME280;5069;49.306;8.636;2023-02-02T09:59:55;101384.88;;;8.47;100.00
10060;BME280;5069;49.306;8.636;2023-02-02T10:03:18;101397.97;;;8.52;100.00
10060;BME280;5069;49.306;8.636;2023-02-02T10:06:36;101391.78;;;8.57;100.00
10060;BME280;5069;49.306;8.636;2023-02-02T10:09:57;101398.72;;;8.64;100.00
10060;BME280;5069;49.306;8.636;2023-02-02T10:16:18;101409.19;;;8.70;100.00
10060;BME280;5069;49.306;8.636;2023-02-02T10:19:19;101407.38;;;8.73;100.00
10060;BME280;5069;49.306;8.636;2023-02-02T10:22:26;101402.88;;;8.84;99.57
10060;BME280;5069;49.306;8.636;2023-02-02T10:25:31;101414.16;;;8.95;98.63
10060;BME280;5069;49.306;8.636;2023-02-02T10:28:44;101415.88;;;8.99;97.87
10060;BME280;5069;49.306;8.636;2023-02-02T10:32:15;101425.50;;;9.00;98.46
10060;BME280;5069;49.306;8.636;2023-02-02T10:38:52;101430.00;;;8.89;97.56
10060;BME280;5069;49.306;8.636;2023-02-02T10:42:08;101430.09;;;8.83;98.72
10060;BME280;5069;49.306;8.636;2023-02-02T10:45:17;101424.78;;;8.86;98.55
10060;BME280;5069;49.306;8.636;2023-02-02T10:48:22;101434.47;;;8.82;98.56
10060;BME280;5069;49.306;8.636;2023-02-02T10:51:29;101423.97;;;8.81;98.24
10060;BME280;5069;49.306;8.636;2023-02-02T10:58:21;101438.09;;;8.69;99.27
10060;BME280;5069;49.306;8.636;2023-02-02T11:01:24;101429.38;;;8.65;99.36
10060;BME280;5069;49.306;8.636;2023-02-02T11:04:27;101437.22;;;8.68;99.04
10060;BME280;5069;49.306;8.636;2023-02-02T11:07:48;101438.09;;;8.67;98.62
10060;BME280;5069;49.306;8.636;2023-02-02T11:10:52;101429.22;;;8.79;97.99
10060;BME280;5069;49.306;8.636;2023-02-02T11:14:00;101434.53;;;8.73;98.23
10060;BME280;5069;49.306;8.636;2023-02-02T11:17:05;101443.25;;;8.78;97.29
10060;BME280;5069;49.306;8.636;2023-02-02T11:20:30;101439.75;;;8.82;97.25
10060;BME280;5069;49.306;8.636;2023-02-02T11:23:32;101438.00;;;8.81;97.06
10060;BME280;5069;49.306;8.636;2023-02-02T11:26:55;101440.63;;;8.80;96.32
10060;BME280;5069;49.306;8.636;2023-02-02T11:29:58;101436.25;;;8.80;97.46
10060;BME280;5069;49.306;8.636;2023-02-02T11:33:30;101439.69;;;8.84;96.52
10060;BME280;5069;49.306;8.636;2023-02-02T11:36:33;101435.31;;;8.86;96.83
10060;BME280;5069;49.306;8.636;2023-02-02T11:39:35;101444.13;;;8.82;95.64
10060;BME280;5069;49.306;8.636;2023-02-02T11:42:36;101445.88;;;8.83;95.73
10060;BME280;5069;49.306;8.636;2023-02-02T11:45:40;101430.03;;;8.86;96.25
10060;BME280;5069;49.306;8.636;2023-02-02T11:48:55;101429.19;;;8.84;96.19
10060;BME280;5069;49.306;8.636;2023-02-02T11:52:04;101431.84;;;8.82;96.72
10060;BME280;5069;49.306;8.636;2023-02-02T11:55:16;101431.78;;;8.87;94.94
10060;BME280;5069;49.306;8.636;2023-02-02T11:58:22;101430.84;;;8.92;94.31
10060;BME280;5069;49.306;8.636;2023-02-02T12:01:35;101426.53;;;8.87;94.39
10060;BME280;5069;49.306;8.636;2023-02-02T12:04:39;101415.97;;;8.93;94.04
10060;BME280;5069;49.306;8.636;2023-02-02T12:07:42;101423.78;;;8.96;94.12
10060;BME280;5069;49.306;8.636;2023-02-02T12:10:53;101429.97;;;8.92;93.78
10060;BME280;5069;49.306;8.636;2023-02-02T12:14:02;101427.22;;;9.05;91.47
10060;BME280;5069;49.306;8.636;2023-02-02T12:17:33;101428.91;;;9.09;90.40
10060;BME280;5069;49.306;8.636;2023-02-02T12:20:54;101416.72;;;9.02;91.21
10060;BME280;5069;49.306;8.636;2023-02-02T12:24:21;101413.16;;;9.08;91.03
10060;BME280;5069;49.306;8.636;2023-02-02T12:28:04;101413.09;;;9.12;90.46
10060;BME280;5069;49.306;8.636;2023-02-02T12:38:10;101395.56;;;9.11;91.72
10060;BME280;5069;49.306;8.636;2023-02-02T12:41:33;101391.16;;;9.15;91.53
10060;BME280;5069;49.306;8.636;2023-02-02T12:51:41;101378.69;;;9.29;90.66
10060;BME280;5069;49.306;8.636;2023-02-02T12:55:16;101389.25;;;9.26;90.74
10060;BME280;5069;49.306;8.636;2023-02-02T12:58:30;101377.84;;;9.27;91.16
10060;BME280;5069;49.306;8.636;2023-02-02T13:02:14;101375.16;;;9.30;90.99
10060;BME280;5069;49.306;8.636;2023-02-02T13:08:47;101366.09;;;9.52;89.21
10060;BME280;5069;49.306;8.636;2023-02-02T13:11:56;101378.38;;;9.53;88.40
10060;BME280;5069;49.306;8.636;2023-02-02T13:15:05;101386.09;;;9.66;87.20
10060;BME280;5069;49.306;8.636;2023-02-02T13:18:17;101392.91;;;9.80;85.63
10060;BME280;5069;49.306;8.636;2023-02-02T13:21:20;101396.41;;;9.81;85.26
10060;BME280;5069;49.306;8.636;2023-02-02T13:24:28;101391.34;;;9.67;85.88
10060;BME280;5069;49.306;8.636;2023-02-02T13:27:31;101391.28;;;9.70;85.70
10060;BME280;5069;49.306;8.636;2023-02-02T13:30:36;101393.03;;;9.71;85.80
10060;BME280;5069;49.306;8.636;2023-02-02T13:33:40;101392.16;;;9.72;86.13
10060;BME280;5069;49.306;8.636;2023-02-02T13:36:50;101396.47;;;9.76;85.78
10060;BME280;5069;49.306;8.636;2023-02-02T13:40:00;101407.06;;;9.73;86.27
10060;BME280;5069;49.306;8.636;2023-02-02T13:49:40;101408.78;;;9.76;87.64
10060;BME280;5069;49.306;8.636;2023-02-02T13:56:17;101413.31;;;9.65;87.35
10060;BME280;5069;49.306;8.636;2023-02-02T13:59:47;101417.63;;;9.70;87.12
10060;BME280;5069;49.306;8.636;2023-02-02T14:02:54;101420.34;;;9.63;87.61
10060;BME280;5069;49.306;8.636;2023-02-02T14:06:21;101428.25;;;9.63;88.08
10060;BME280;5069;49.306;8.636;2023-02-02T14:09:28;101425.50;;;9.73;87.38
10060;BME280;5069;49.306;8.636;2023-02-02T14:12:32;101422.94;;;9.67;87.82
10060;BME280;5069;49.306;8.636;2023-02-02T14:15:40;101439.72;;;9.57;88.64
10060;BME280;5069;49.306;8.636;2023-02-02T14:28:42;101442.56;;;9.42;89.29
10060;BME280;5069;49.306;8.636;2023-02-02T14:31:52;101453.97;;;9.42;88.73
10060;BME280;5069;49.306;8.636;2023-02-02T14:34:55;101448.78;;;9.35;88.88
10060;BME280;5069;49.306;8.636;2023-02-02T14:41:16;101475.19;;;9.27;89.21
10060;BME280;5069;49.306;8.636;2023-02-02T14:45:26;101476.91;;;9.33;89.51
10060;BME280;5069;49.306;8.636;2023-02-02T14:48:25;101483.97;;;9.26;89.58
10060;BME280;5069;49.306;8.636;2023-02-02T14:51:29;101484.03;;;9.20;90.74
10060;BME280;5069;49.306;8.636;2023-02-02T14:54:35;101481.34;;;9.26;90.90
10060;BME280;5069;49.306;8.636;2023-02-02T14:57:37;101479.66;;;9.21;90.70
10060;BME280;5069;49.306;8.636;2023-02-02T15:00:39;101492.94;;;9.10;91.90
10060;BME280;5069;49.306;8.636;2023-02-02T15:10:56;101513.09;;;9.09;92.40
10060;BME280;5069;49.306;8.636;2023-02-02T15:14:02;101523.59;;;9.11;91.78
10060;BME280;5069;49.306;8.636;2023-02-02T15:17:32;101521.03;;;9.05;92.16
10060;BME280;5069;49.306;8.636;2023-02-02T15:20:40;101522.81;;;9.03;92.44
10060;BME280;5069;49.306;8.636;2023-02-02T15:23:44;101528.88;;;9.08;91.28
10060;BME280;5069;49.306;8.636;2023-02-02T15:26:47;101536.78;;;9.08;91.10
10060;BME280;5069;49.306;8.636;2023-02-02T15:29:55;101549.81;;;9.17;90.92
10060;BME280;5069;49.306;8.636;2023-02-02T15:33:12;101545.50;;;9.13;90.84
10060;BME280;5069;49.306;8.636;2023-02-02T15:36:25;101541.09;;;9.13;90.85
10060;BME280;5069;49.306;8.636;2023-02-02T15:39:46;101553.31;;;9.22;89.75
10060;BME280;5069;49.306;8.636;2023-02-02T15:42:56;101561.31;;;9.10;90.09
10060;BME280;5069;49.306;8.636;2023-02-02T15:46:05;101562.03;;;9.24;89.66
10060;BME280;5069;49.306;8.636;2023-02-02T15:52:34;101555.13;;;9.14;90.03
10060;BME280;5069;49.306;8.636;2023-02-02T15:55:46;101562.16;;;9.12;90.15
10060;BME280;5069;49.306;8.636;2023-02-02T15:58:50;101566.59;;;9.10;90.27
10060;BME280;5069;49.306;8.636;2023-02-02T16:05:38;101573.69;;;8.94;92.47
10060;BME280;5069;49.306;8.636;2023-02-02T16:08:41;101583.34;;;8.95;92.16
10060;BME280;5069;49.306;8.636;2023-02-02T16:11:44;101585.91;;;9.03;91.33
10060;BME280;5069;49.306;8.636;2023-02-02T16:14:54;101587.63;;;9.07;91.51
10060;BME280;5069;49.306;8.636;2023-02-02T16:18:03;101598.16;;;9.10;91.13
10060;BME280;5069;49.306;8.636;2023-02-02T16:21:08;101601.56;;;9.20;90.16
10060;BME280;5069;49.306;8.636;2023-02-02T16:24:39;101612.13;;;9.15;91.28
10060;BME280;5069;49.306;8.636;2023-02-02T16:27:45;101623.50;;;9.17;91.08
10060;BME280;5069;49.306;8.636;2023-02-02T16:30:48;101622.63;;;9.18;90.50
10060;BME280;5069;49.306;8.636;2023-02-02T16:33:52;101627.88;;;9.21;90.79
10060;BME280;5069;49.306;8.636;2023-02-02T16:40:25;101642.78;;;9.22;90.68
10060;BME280;5069;49.306;8.636;2023-02-02T16:43:28;101648.03;;;9.21;90.51
10060;BME280;5069;49.306;8.636;2023-02-02T16:46:48;101657.69;;;9.20;90.62
10060;BME280;5069;49.306;8.636;2023-02-02T16:50:16;101659.44;;;9.18;90.35
10060;BME280;5069;49.306;8.636;2023-02-02T16:53:22;101666.53;;;9.10;90.89
10060;BME280;5069;49.306;8.636;2023-02-02T16:56:38;101670.94;;;9.08;91.28
10060;BME280;5069;49.306;8.636;2023-02-02T16:59:46;101673.53;;;9.12;90.69
10060;BME280;5069;49.306;8.636;2023-02-02T17:02:58;101682.28;;;9.13;90.88
10060;BME280;5069;49.306;8.636;2023-02-02T17:06:01;101676.97;;;9.19;90.55
10060;BME280;5069;49.306;8.636;2023-02-02T17:12:34;101687.53;;;9.16;89.67
10060;BME280;5069;49.306;8.636;2023-02-02T17:15:36;101679.69;;;9.10;89.86
10060;BME280;5069;49.306;8.636;2023-02-02T17:18:37;101699.78;;;9.20;89.04
10060;BME280;5069;49.306;8.636;2023-02-02T17:21:40;101700.75;;;9.07;89.69
10060;BME280;5069;49.306;8.636;2023-02-02T17:24:47;101712.13;;;9.09;90.42
10060;BME280;5069;49.306;8.636;2023-02-02T17:27:49;101706.00;;;9.08;90.81
10060;BME280;5069;49.306;8.636;2023-02-02T17:30:56;101710.50;;;8.90;93.49
10060;BME280;5069;49.306;8.636;2023-02-02T17:33:59;101715.75;;;8.90;93.93
10060;BME280;5069;49.306;8.636;2023-02-02T17:37:00;101709.69;;;8.80;95.09
10060;BME280;5069;49.306;8.636;2023-02-02T17:40:02;101714.06;;;8.83;95.14
10060;BME280;5069;49.306;8.636;2023-02-02T17:43:03;101717.53;;;8.85;95.12
10060;BME280;5069;49.306;8.636;2023-02-02T17:46:09;101713.19;;;8.79;95.38
10060;BME280;5069;49.306;8.636;2023-02-02T17:49:12;101720.22;;;8.74;95.48
10060;BME280;5069;49.306;8.636;2023-02-02T17:52:13;101720.19;;;8.80;95.58
10060;BME280;5069;49.306;8.636;2023-02-02T17:58:21;101718.47;;;8.73;96.92
10060;BME280;5069;49.306;8.636;2023-02-02T18:01:23;101723.78;;;8.64;97.74
10060;BME280;5069;49.306;8.636;2023-02-02T18:04:24;101719.44;;;8.58;98.11
10060;BME280;5069;49.306;8.636;2023-02-02T18:07:27;101724.66;;;8.61;98.52
10060;BME280;5069;49.306;8.636;2023-02-02T18:10:28;101726.47;;;8.46;99.83